Terminal Aerodrome Forecast
Issued by NWS Billings, MT

Home | Current Version | Previous Version | Graphics & Text | Print | Product List | Glossary On
Versions: 1 2 3 4 5 6 7 8 9 10 11 12 13 14 15 16 17 18 19 20 21 22 23 24 25 26
000
FTUS45 KBYZ 251740
TAFMLS
TAF
KMLS 251740Z 2518/2618 02013G19KT 3/4SM -SHSN OVC013
      TEMPO 2518/2519 5SM -SHSN
     FM251900 01013G19KT 6SM -SHSN BKN013
     FM252100 36013KT P6SM VCSH SCT015 BKN025
     FM260200 01010KT P6SM BKN035
     FM261000 01008KT P6SM SKC=

USA.gov is the U.S. government's official web portal to all federal, state and local government web resources and services.